Погода Трисвятьена неделю

Смоленская область, Россия

24 - 30 июля
  • 24июля
    Сегодня
    +11°
    +25°
    Практически безоблачно
    ВремяПогодаТемператураВлажностьДавлениеВетер, м/сВероятность осадков
    00:00Пасмурно, сплошная облачность+17°C84 %745 мм1.7 м/с2 %
    03:00Облачно с прояснениями+16°C81 %745 мм1.4 м/с2 %
    06:00Облачно с прояснениями+15°C86 %745 мм1.8 м/с2 %
    09:00Практически безоблачно+20°C58 %746 мм1.6 м/с2 %
    12:00Небольшая облачность+23°C46 %745 мм2.2 м/с4 %
    15:00Практически безоблачно+24°C40 %744 мм2.4 м/с2 %
    18:00Ясно и безоблачно+24°C37 %744 мм2.1 м/с2 %
    21:00Ясно и безоблачно+18°C55 %743 мм1.7 м/с2 %
  • 25июля
    Четверг
    +13°
    +26°
    Небольшая облачность
    ВремяПогодаТемператураВлажностьДавлениеВетер, м/сВероятность осадков
    00:00Ясно и безоблачно+16°C66 %743 мм2.1 м/с2 %
    03:00Ясно и безоблачно+14°C73 %743 мм2.3 м/с2 %
    06:00Ясно и безоблачно+14°C76 %743 мм0.7 м/с2 %
    09:00Ясно и безоблачно+21°C56 %743 мм0.9 м/с2 %
    12:00Ясно и безоблачно+24°C39 %743 мм0.6 м/с2 %
    15:00Небольшая облачность+25°C34 %742 мм0.1 м/с5 %
    18:00Облачно с прояснениями+26°C34 %741 мм1.7 м/с14 %
    21:00Ясно и безоблачно+20°C51 %742 мм2.9 м/с8 %
  • 26июля
    Пятница
    +13°
    +24°
    Пасмурно, дожди с грозами
    ВремяПогодаТемператураВлажностьДавлениеВетер, м/сВероятность осадков
    00:00Ясно и безоблачно+15°C77 %742 мм1.8 м/с2 %
    03:00Ясно и безоблачно+15°C88 %742 мм1.8 м/с2 %
    06:00Ясно и безоблачно+15°C89 %743 мм1.9 м/с2 %
    09:00Ясно и безоблачно+22°C67 %744 мм1.4 м/с2 %
    12:00Практически безоблачно+24°C55 %744 мм2.1 м/с21 %
    15:00Пасмурно, дожди с грозами+24°C51 %744 мм2.0 м/с32 %
    18:00Практически безоблачно+24°C56 %745 мм1.7 м/с37 %
    21:00Ясно и безоблачно+19°C74 %745 мм1.7 м/с10 %
  • 27июля
    Суббота
    +15°
    +26°
    Небольшая облачность
    ВремяПогодаТемператураВлажностьДавлениеВетер, м/сВероятность осадков
    00:00Ясно и безоблачно+17°C73 %746 мм0.4 м/с2 %
    03:00Ясно и безоблачно+16°C77 %746 мм0.8 м/с3 %
    06:00Ясно и безоблачно+16°C89 %747 мм1.3 м/с3 %
    09:00Ясно и безоблачно+22°C65 %748 мм1.3 м/с5 %
    12:00Ясно и безоблачно+25°C52 %748 мм1.5 м/с13 %
    15:00Небольшая облачность+26°C44 %747 мм2.2 м/с15 %
    18:00Практически безоблачно+27°C45 %747 мм3.2 м/с33 %
    21:00Небольшая облачность+21°C63 %747 мм1.9 м/с9 %
Мы используем cookies
Соглашаюсь